Data for 08/25/2018

Time Sea-Level Adjusted Pressure Absolute Pressure Temperature Relative Humidity Dew Point   
(mb) (inHg) (mb) (inHg) (C) (F) (%) (C) (F)
00:05 1018 30.06 847 25.01 14.9 58.8 37 0.6 33.1
00:10 1018 30.06 847 25.01 15 58.9 38 0.8 33.4
00:15 1018 30.06 847 25.01 14.8 58.7 38 0.7 33.2
00:20 1018 30.06 847 25.01 14.9 58.8 36 0.2 32.4
00:25 1018 30.06 847 25.01 15.1 59.1 36 0.3 32.5
00:30 1018 30.06 847 25.01 15.1 59.1 39 1.4 34.5
00:35 1018 30.06 847 25.01 14.5 58.1 43 2.1 35.7
00:40 1018 30.06 847 25.01 13.5 56.3 48 2.8 37.1
00:45 1018 30.06 847 25.01 12.6 54.6 48 1.9 35.5
00:50 1018 30.06 847 25.01 12.6 54.6 50 2.6 36.6
00:55 1018 30.06 847 25.01 12.2 53.9 51 2.5 36.5
01:00 1018 30.06 847 25.01 12.1 53.8 51 2.2 36
01:05 1018 30.06 847 25.01 12.2 53.9 51 2.3 36.1
01:10 1018 30.06 847 25.01 12.1 53.8 51 2.4 36.3
01:15 1018 30.06 847 25.01 12.1 53.7 51 2.4 36.3
01:20 1018 30.06 847 25.01 12.1 53.7 52 2.5 36.5
01:25 1018 30.06 847 25.01 12 53.6 51 2.2 36
01:30 1018 30.06 847 25.01 12.2 53.9 50 2.2 36
01:35 1018 30.06 847 25.01 12.1 53.9 52 2.6 36.8
01:40 1018 30.06 847 25.01 11.9 53.4 50 1.9 35.4
01:45 1018 30.06 847 25.01 12.3 54.1 47 1.4 34.6
01:50 1018 30.06 847 25.01 12.5 54.4 48 1.9 35.4
01:55 1018 30.06 847 25.01 12.3 54.1 48 1.6 34.8
02:00 1018 30.06 847 25.01 12.4 54.3 49 2 35.5
02:05 1018 30.06 847 25.01 12.1 53.9 49 1.7 35.1
02:10 1018 30.06 847 25.01 12 53.5 50 1.9 35.4
02:15 1018 30.06 847 25.01 11.9 53.4 50 2 35.5
02:20 1018 30.06 847 25.01 11.7 53 53 2.4 36.3
02:25 1018 30.06 847 25.01 11.5 52.6 53 2.3 36.2
02:30 1018 30.06 847 25.01 11.5 52.6 51 1.8 35.2
02:35 1018 30.06 847 25.01 11.6 53 51 1.8 35.3
02:40 1018 30.06 847 25.01 11.8 53.2 52 2.2 36
02:45 1018 30.06 848 25.04 11.5 52.8 51 1.9 35.5
02:50 1018 30.06 848 25.04 11.3 52.3 53 2.2 36
02:55 1018 30.06 848 25.04 10.8 51.4 56 2.4 36.2
03:00 1018 30.06 848 25.04 10.5 50.8 56 2.2 35.9
03:05 1018 30.06 848 25.04 10.5 50.9 56 2.2 35.9
03:10 1018 30.06 848 25.04 10.3 50.6 57 2.3 36.2
03:15 1018 30.06 848 25.04 9.9 49.9 59 2.4 36.2
03:20 1018 30.06 848 25.04 9.7 49.4 60 2.2 36
03:25 1019 30.09 848 25.04 9.5 49.2 59 1.9 35.4
03:30 1019 30.09 848 25.04 9.6 49.2 59 1.9 35.4
03:35 1019 30.09 848 25.04 9.7 49.5 57 1.5 34.8
03:40 1019 30.09 848 25.04 9.9 49.7 55 1.3 34.4
03:45 1019 30.09 848 25.04 10.1 50.1 53 1.1 33.9
03:50 1019 30.09 848 25.04 10.2 50.3 54 1.2 34.2
03:55 1019 30.09 848 25.04 10.1 50.2 53 1.1 34
04:00 1019 30.09 848 25.04 10.2 50.4 53 1 33.8
04:05 1019 30.09 848 25.04 10.2 50.3 53 1.1 34
04:10 1019 30.09 848 25.04 10 49.9 54 1.1 34
04:15 1019 30.09 848 25.04 10 49.9 54 1.1 34
04:20 1019 30.09 848 25.04 9.9 49.9 53 0.9 33.6
04:25 1019 30.09 848 25.04 9.8 49.7 52 0.6 33.1
04:30 1019 30.09 848 25.04 9.9 49.7 53 0.8 33.4
04:35 1019 30.09 848 25.04 9.9 49.9 52 0.6 33
04:40 1019 30.09 848 25.04 10 50.1 53 0.8 33.5
04:45 1019 30.09 848 25.04 10.1 50.2 52 0.7 33.2
04:50 1019 30.09 848 25.04 10.3 50.6 51 0.6 33
04:55 1019 30.09 848 25.04 10.3 50.5 52 1 33.7
05:00 1019 30.09 848 25.04 9.9 49.9 53 0.7 33.3
05:05 1019 30.09 848 25.04 9.8 49.6 53 0.8 33.4
05:10 1019 30.09 848 25.04 9.8 49.6 53 0.7 33.2
05:15 1019 30.09 848 25.04 9.7 49.4 53 0.7 33.2
05:20 1019 30.09 848 25.04 9.6 49.3 56 1.3 34.4
05:25 1019 30.09 848 25.04 9.2 48.6 54 0.4 32.7
05:30 1019 30.09 848 25.04 9.5 49 55 1 33.8
05:35 1019 30.09 848 25.04 9.2 48.5 56 0.9 33.6
05:40 1019 30.09 848 25.04 9.3 48.7 55 0.8 33.4
05:45 1019 30.09 848 25.04 9.2 48.6 54 0.5 32.9
05:50 1019 30.09 848 25.04 9.4 49 54 0.6 33
05:55 1019 30.09 848 25.04 9.4 48.9 53 0.5 32.8
06:00 1019 30.09 848 25.04 9.3 48.8 55 0.8 33.5
06:05 1019 30.09 848 25.04 9.1 48.4 55 0.7 33.2
06:10 1019 30.09 848 25.04 9.1 48.3 56 0.8 33.4
06:15 1019 30.09 848 25.04 8.9 48 58 1 33.8
06:20 1019 30.09 848 25.04 8.7 47.7 58 1 33.7
06:25 1019 30.09 848 25.04 8.6 47.6 59 1.1 33.9
06:30 1019 30.09 848 25.04 8.4 47.2 60 1.1 34
06:35 1019 30.09 848 25.04 8.2 46.7 61 1 33.9
06:40 1019 30.09 848 25.04 8.1 46.6 61 1 33.8
06:45 1019 30.09 848 25.04 8.2 46.8 60 1 33.8
06:50 1019 30.09 848 25.04 8.3 47 60 1 33.7
06:55 1019 30.09 848 25.04 8.4 47.1 59 0.9 33.7
07:00 1019 30.09 848 25.04 8.4 47.2 59 0.9 33.7
07:05 1019 30.09 848 25.04 8.5 47.2 59 0.9 33.6
07:10 1019 30.09 848 25.04 8.5 47.3 59 0.9 33.6
07:15 1019 30.09 848 25.04 8.3 47 60 1.1 34
07:20 1019 30.09 848 25.04 8 46.4 61 1 33.8
07:25 1019 30.09 848 25.04 8 46.4 62 1.2 34.2
07:30 1019 30.09 848 25.04 8 46.4 62 1.1 34
07:35 1019 30.09 848 25.04 8 46.4 62 1.1 34
07:40 1019 30.09 848 25.04 8.1 46.7 61 1.2 34.1
07:45 1019 30.09 849 25.07 8.3 46.9 60 1.1 33.9
07:50 1019 30.09 849 25.07 8.4 47 60 1.1 34
07:55 1019 30.09 849 25.07 8.5 47.3 60 1.2 34.1
08:00 1019 30.09 849 25.07 8.6 47.4 60 1.2 34.2
08:05 1019 30.09 849 25.07 8.5 47.4 60 1.2 34.1
08:10 1019 30.09 849 25.07 8.7 47.6 59 1.3 34.3
08:15 1019 30.09 849 25.07 9.1 48.3 59 1.4 34.5
08:20 1019 30.09 849 25.07 9.4 48.9 57 1.3 34.3
08:25 1019 30.09 849 25.07 9.7 49.4 55 1.2 34.1
08:30 1019 30.09 849 25.07 9.9 49.9 55 1.4 34.6
08:35 1019 30.09 849 25.07 10.3 50.6 54 1.5 34.7
08:40 1019 30.09 849 25.07 10.5 51 55 1.9 35.5
08:45 1019 30.09 849 25.07 10.7 51.2 53 1.7 35
08:50 1019 30.09 849 25.07 11 51.8 53 1.9 35.4
08:55 1019 30.09 849 25.07 11.3 52.3 53 2.1 35.8
09:00 1019 30.09 849 25.07 11.3 52.4 52 1.8 35.2
09:05 1019 30.09 849 25.07 11.7 53.1 50 1.6 35
09:10 1019 30.09 849 25.07 11.9 53.3 50 1.8 35.3
09:15 1019 30.09 849 25.07 12.3 54.1 49 1.9 35.5
09:20 1019 30.09 849 25.07 12.7 54.8 48 2 35.5
09:25 1019 30.09 849 25.07 13 55.5 46 1.8 35.2
09:30 1019 30.09 849 25.07 13.9 57 44 2 35.7
09:35 1019 30.09 849 25.07 14.2 57.5 44 2.2 36
09:40 1019 30.09 849 25.07 14 57.2 43 1.8 35.2
09:45 1019 30.09 849 25.07 14.4 57.9 42 1.9 35.4
09:50 1019 30.09 848 25.04 14.4 58 43 2.2 35.9
09:55 1019 30.09 848 25.04 14.3 57.7 43 2.1 35.7
10:00 1019 30.09 848 25.04 14.7 58.4 42 1.8 35.3
10:05 1019 30.09 849 25.07 15.5 60 42 2.6 36.7
10:10 1019 30.09 848 25.04 14.7 58.4 43 2.4 36.4
10:15 1019 30.09 848 25.04 14.6 58.2 43 2.2 35.9
10:20 1019 30.09 848 25.04 15.3 59.5 42 2.5 36.5
10:25 1019 30.09 848 25.04 15.5 59.9 42 2.7 36.9
10:30 1019 30.09 848 25.04 15.5 60 42 2.6 36.7
10:35 1019 30.09 848 25.04 15.3 59.6 40 2.1 35.7
10:40 1019 30.09 848 25.04 16.3 61.3 39 2.3 36.2
10:45 1019 30.09 848 25.04 16.7 62.1 40 3 37.5
10:50 1019 30.09 848 25.04 16.6 61.9 44 4.3 39.8
10:55 1019 30.09 848 25.04 16.7 62 41 3.5 38.4
11:00 1019 30.09 848 25.04 16.6 61.8 45 4.6 40.3
11:05 1019 30.09 848 25.04 15.8 60.5 42 3.2 37.7
11:10 1019 30.09 848 25.04 16.4 61.5 40 2.9 37.3
11:15 1019 30.09 848 25.04 17.3 63.1 41 4.1 39.4
11:20 1019 30.09 848 25.04 17.4 63.2 39 3.4 38.1
11:25 1019 30.09 848 25.04 17.8 64 37 3.2 37.7
11:30 1019 30.09 848 25.04 18.1 64.6 37 3.3 37.9
11:35 1019 30.09 848 25.04 18.6 65.4 35 3.1 37.5
11:40 1019 30.09 848 25.04 19.6 67.3 31 2 35.6
11:45 1019 30.09 848 25.04 19.9 67.8 33 3.2 37.8
11:50 1019 30.09 848 25.04 19.1 66.5 31 1.9 35.4
11:55 1019 30.09 848 25.04 18.6 65.5 29 0.2 32.4
12:00 1018 30.06 848 25.04 19.5 67.2 28 0.8 33.5
12:05 1018 30.06 848 25.04 20 67.9 29 1.7 35.1
12:10 1018 30.06 848 25.04 20.1 68.3 30 2.1 35.7
12:15 1018 30.06 847 25.01 20.5 69 27 1.2 34.2
12:20 1018 30.06 847 25.01 21 69.9 26 1.1 34
12:25 1018 30.06 847 25.01 21 69.7 27 1.3 34.3
12:30 1018 30.06 847 25.01 21 69.8 27 1.5 34.7
12:35 1018 30.06 847 25.01 21.5 70.7 26 1.5 34.7
12:40 1018 30.06 847 25.01 21.9 71.5 27 2.2 36
12:45 1018 30.06 847 25.01 21.5 70.7 27 1.9 35.5
12:50 1018 30.06 847 25.01 21.7 71.1 26 1.5 34.8
12:55 1018 30.06 847 25.01 22.1 71.7 25 1.5 34.7
13:00 1018 30.06 847 25.01 21.6 71 26 1.7 35.1
13:05 1018 30.06 847 25.01 22.1 71.7 26 2 35.6
13:10 1018 30.06 847 25.01 21.8 71.2 27 2.1 35.8
13:15 1018 30.06 847 25.01 21.9 71.4 26 1.7 35.1
13:20 1018 30.06 847 25.01 22.6 72.7 25 1.8 35.3
13:25 1018 30.06 847 25.01 22.6 72.7 25 1.8 35.3
13:30 1018 30.06 847 25.01 22.6 72.7 23 0.9 33.6
13:35 1017 30.03 847 25.01 23.3 73.9 23 1 33.7
13:40 1017 30.03 847 25.01 23.3 73.9 24 1.7 35.1
13:45 1017 30.03 846 24.98 22.2 71.9 24 1.1 33.9
13:50 1017 30.03 846 24.98 21.9 71.5 25 1.2 34.1
13:55 1017 30.03 846 24.98 22.5 72.4 23 0.7 33.3
14:00 1017 30.03 846 24.98 23.9 74.9 21 0.7 33.3
14:05 1017 30.03 846 24.98 24.5 76.2 21 0.9 33.5
14:10 1017 30.03 846 24.98 24.6 76.3 21 1.1 34
14:15 1017 30.03 846 24.98 24.7 76.4 22 1.5 34.7
14:20 1017 30.03 846 24.98 24.5 76.2 20 0.4 32.8
14:25 1017 30.03 846 24.98 23.4 74.2 22 0.5 33
14:30 1017 30.03 846 24.98 23.9 75 21 0.5 32.9
14:35 1017 30.03 846 24.98 24.4 76 19 -0.2 31.6
14:40 1017 30.03 846 24.98 24.3 75.7 19 -0.4 31.2
14:45 1016 30 846 24.98 24.9 76.8 19 -0.4 31.3
14:50 1016 30 846 24.98 25.3 77.5 20 1.1 34
14:55 1016 30 845 24.95 24.7 76.5 19 0 32.1
15:00 1016 30 845 24.95 24.8 76.7 18 -0.7 30.7
15:05 1016 30 845 24.95 25.3 77.5 18 -0.2 31.6
15:10 1016 30 845 24.95 24.9 76.7 20 0.5 32.8
15:15 1016 30 845 24.95 24.4 75.8 17 -1.7 29
15:20 1016 30 845 24.95 25.3 77.5 17 -1 30.2
15:25 1016 30 845 24.95 25.1 77.1 17 -1.6 29.1
15:30 1016 30 845 24.95 24.4 75.8 17 -1.8 28.7
15:35 1016 30 845 24.95 25.3 77.6 15 -2.7 27.1
15:40 1016 30 845 24.95 24.5 76 17 -2 28.4
15:45 1015 29.97 845 24.95 24.1 75.4 17 -1.9 28.7
15:50 1015 29.97 845 24.95 24.7 76.5 17 -1.9 28.6
15:55 1015 29.97 845 24.95 24.5 76.1 17 -1.9 28.6
16:00 1015 29.97 845 24.95 25.6 78 17 -1.1 30
16:05 1015 29.97 845 24.95 25.9 78.6 15 -2.2 28.1
16:10 1015 29.97 844 24.92 25.4 77.7 17 -1.1 30.1
16:15 1015 29.97 844 24.92 25.4 77.8 16 -2.4 27.7
16:20 1015 29.97 844 24.92 25.8 78.5 15 -2.2 28.1
16:25 1015 29.97 844 24.92 24.5 76 18 -0.8 30.5
16:30 1015 29.97 844 24.92 24.2 75.5 18 -1.4 29.5
16:35 1015 29.97 844 24.92 25 77 17 -1.5 29.3
16:40 1015 29.97 844 24.92 24.6 76.3 18 -1.4 29.4
16:45 1015 29.97 844 24.92 24.7 76.4 15 -3.1 26.4
16:50 1015 29.97 844 24.92 24 75.1 17 -2.6 27.3
16:55 1015 29.97 844 24.92 24.2 75.5 16 -3.4 25.9
17:00 1015 29.97 844 24.92 24.3 75.7 16 -2.9 26.9
17:05 1015 29.97 844 24.92 25.2 77.3 15 -2.7 27.1
17:10 1015 29.97 844 24.92 24.8 76.6 15 -3.1 26.5
17:15 1015 29.97 844 24.92 24.8 76.6 17 -1.5 29.3
17:20 1015 29.97 844 24.92 25 76.9 15 -3 26.7
17:25 1015 29.97 844 24.92 24.6 76.3 17 -2.1 28.1
17:30 1015 29.97 844 24.92 25.1 77.1 15 -3.1 26.5
17:35 1014 29.94 844 24.92 25 77.1 16 -2.7 27.2
17:40 1014 29.94 844 24.92 25.4 77.8 16 -2.4 27.7
17:45 1014 29.94 844 24.92 24.9 76.8 15 -3 26.5
17:50 1014 29.94 844 24.92 24.7 76.5 15 -3.6 25.5
17:55 1014 29.94 844 24.92 25.3 77.6 14 -3.5 25.8
18:00 1014 29.94 844 24.92 25.5 78 15 -2.7 27.1
18:05 1014 29.94 844 24.92 24.8 76.7 15 -3.2 26.3
18:10 1014 29.94 844 24.92 24.3 75.8 15 -3.6 25.5
18:15 1014 29.94 844 24.92 24 75.2 15 -3.6 25.5
18:20 1014 29.94 843 24.89 24.1 75.3 15 -3.7 25.4
18:25 1014 29.94 843 24.89 24.4 75.8 15 -3.3 26
18:30 1014 29.94 843 24.89 24.3 75.8 20 0.1 32.1
18:35 1014 29.94 843 24.89 24.2 75.6 16 -3.4 25.9
18:40 1014 29.94 843 24.89 24.1 75.3 15 -3.6 25.5
18:45 1014 29.94 843 24.89 23.8 74.9 18 -1.9 28.6
18:50 1014 29.94 843 24.89 23.5 74.3 19 -1.4 29.5
18:55 1014 29.94 843 24.89 23.3 74 17 -2.8 26.9
19:00 1014 29.94 843 24.89 23.2 73.7 21 0 32
19:05 1014 29.94 843 24.89 22.9 73.1 23 0.6 33.1
19:10 1014 29.94 843 24.89 22.6 72.7 25 1.7 35
19:15 1014 29.94 843 24.89 22.3 72.2 27 2.4 36.3
19:20 1014 29.94 843 24.89 21.9 71.4 29 3.2 37.8
19:25 1014 29.94 843 24.89 21.6 70.8 30 3.6 38.4
19:30 1014 29.94 843 24.89 21.3 70.4 31 3.6 38.6
19:35 1014 29.94 843 24.89 21.2 70.1 31 3.6 38.4
19:40 1014 29.94 843 24.89 20.9 69.7 32 3.7 38.6
19:45 1014 29.94 843 24.89 20.7 69.3 33 3.9 38.9
19:50 1014 29.94 843 24.89 20.6 69 33 4 39.2
19:55 1014 29.94 843 24.89 20.4 68.7 34 4.1 39.5
20:00 1014 29.94 843 24.89 20.2 68.4 35 4.3 39.8
20:05 1014 29.94 843 24.89 20.1 68.1 35 4.3 39.7
20:10 1014 29.94 843 24.89 19.9 67.9 35 4.2 39.6
20:15 1014 29.94 843 24.89 19.8 67.6 35 4.1 39.5
20:20 1014 29.94 843 24.89 19.7 67.5 35 4.1 39.4
20:25 1014 29.94 843 24.89 19.6 67.4 35 4 39.2
20:30 1014 29.94 843 24.89 19.5 67.2 36 4 39.3
20:35 1014 29.94 843 24.89 19.4 67 36 4 39.2
20:40 1014 29.94 843 24.89 19.4 66.8 36 4 39.3
20:45 1014 29.94 843 24.89 19.2 66.6 37 4.2 39.5
20:50 1014 29.94 843 24.89 19.1 66.4 37 4.2 39.6
20:55 1014 29.94 843 24.89 19 66.3 37 4 39.3
21:00 1014 29.94 843 24.89 19 66.2 37 4.2 39.5
21:05 1014 29.94 843 24.89 18.9 65.9 38 4.3 39.8
21:10 1014 29.94 843 24.89 18.7 65.7 38 4.3 39.7
21:15 1014 29.94 843 24.89 18.7 65.7 38 4.4 39.8
21:20 1014 29.94 843 24.89 18.7 65.6 38 4.3 39.8
21:25 1014 29.94 844 24.92 18.6 65.6 38 4.3 39.8
21:30 1014 29.94 844 24.92 18.5 65.4 39 4.4 39.9
21:35 1015 29.97 844 24.92 18.4 65.1 39 4.5 40
21:40 1015 29.97 844 24.92 18.4 65 40 4.6 40.3
21:45 1015 29.97 845 24.95 18.5 65.3 39 4.4 40
21:50 1015 29.97 844 24.92 18.8 65.8 38 4.2 39.6
21:55 1015 29.97 844 24.92 18.8 65.9 38 4.3 39.7
22:00 1015 29.97 844 24.92 18.6 65.5 39 4.5 40.1
22:05 1015 29.97 845 24.95 18.4 65.1 39 4.2 39.6
22:10 1015 29.97 844 24.92 18.4 65.1 39 4.2 39.6
22:15 1015 29.97 844 24.92 18.2 64.8 39 4.4 39.8
22:20 1015 29.97 844 24.92 18 64.4 40 4.3 39.8
22:25 1015 29.97 844 24.92 17.8 64 41 4.6 40.3
22:30 1015 29.97 844 24.92 17.4 63.4 43 4.7 40.4
22:35 1014 29.94 844 24.92 17.1 62.8 44 4.7 40.5
22:40 1014 29.94 843 24.89 17 62.6 43 4.5 40.1
22:45 1014 29.94 843 24.89 17.1 62.8 43 4.5 40.2
22:50 1014 29.94 843 24.89 17 62.5 44 4.7 40.5
22:55 1014 29.94 843 24.89 16.7 62 44 4.6 40.4
23:00 1014 29.94 843 24.89 16.6 61.8 45 4.7 40.4
23:05 1014 29.94 843 24.89 16.4 61.6 46 4.7 40.5
23:10 1014 29.94 843 24.89 16.3 61.4 46 4.8 40.6
23:15 1014 29.94 843 24.89 16.2 61.1 47 4.9 40.8
23:20 1014 29.94 843 24.89 16.1 60.9 47 5 40.9
23:25 1014 29.94 843 24.89 16 60.7 49 5.3 41.5
23:30 1014 29.94 843 24.89 15.8 60.5 50 5.4 41.8
23:35 1014 29.94 843 24.89 15.7 60.3 51 5.7 42.3
23:40 1014 29.94 843 24.89 15.7 60.3 51 5.7 42.3
23:45 1014 29.94 843 24.89 15.6 60.1 52 5.9 42.6
23:50 1014 29.94 843 24.89 15.5 59.9 53 6 42.8
23:55 1014 29.94 843 24.89 15.4 59.7 53 6 42.8
24:00 1014 29.94 843 24.89 15.4 59.6 54 6.1 42.9